Back to Top

Language: 

My Weather Underground Personal Weather Station Historical Data with Graphs...

Delerius Weather Station Historical Data
Daily Summary for August 15, 2017 Units:  English    Metric   Both
« Previous Day
Next Day »
Daily Weekly Monthly Yearly Custom
  High: Low: Average:
Temperature: 72.0 °F 52.2 °F 62.7 °F
Dew Point: 56.3 °F 48.1 °F 53 °F
Humidity: 92 % 48 % 72 %
Wind Speed: 14.0 mph 0.0 mph 7.1 mph
Wind Gust: 26.0 mph - -
Wind:- - WSW
Pressure: 30.05 in 29.81 in -
Precipitation: 0.00 in    
Historical Graphs
 
 
Tabular Data for August 15, 2017
Time Temperature Dew Point Pressure Wind Wind Speed Wind Gust Humidity Rainfall Rate (Hourly) solar Conditions
00:04 60.3 °F 56.1 °F 29.86 in SSW 9.0 mph 15.0 mph 86 % 0.00 in 0 W/m2
00:09 60.1 °F 55.9 °F 29.86 in SSW 10.0 mph 19.0 mph 86 % 0.00 in 0 W/m2
00:14 60.1 °F 56.2 °F 29.86 in SSW 9.0 mph 19.0 mph 87 % 0.00 in 0 W/m2
00:19 59.7 °F 55.8 °F 29.86 in SSW 9.0 mph 16.0 mph 87 % 0.00 in 0 W/m2
00:24 59.5 °F 56.0 °F 29.86 in SSW 8.0 mph 16.0 mph 88 % 0.00 in 0 W/m2
00:29 59.5 °F 56.3 °F 29.86 in South 6.0 mph 13.0 mph 89 % 0.00 in 0 W/m2
00:34 59.4 °F 56.1 °F 29.86 in South 7.0 mph 16.0 mph 89 % 0.00 in 0 W/m2
00:35 59.4 °F 56.1 °F 29.86 in South 7.0 mph 16.0 mph 89 % 0.00 in 0 W/m2
00:40 59.2 °F 56.2 °F 29.86 in South 7.0 mph 16.0 mph 90 % 0.00 in 0 W/m2
00:45 59.2 °F 56.2 °F 29.86 in SSW 6.0 mph 12.0 mph 90 % 0.00 in 0 W/m2
00:50 59.0 °F 56.1 °F 29.86 in South 6.0 mph 12.0 mph 90 % 0.00 in 0 W/m2
00:56 58.8 °F 55.9 °F 29.86 in South 4.0 mph 9.0 mph 90 % 0.00 in 0 W/m2
01:00 58.8 °F 55.9 °F 29.86 in South 5.0 mph 11.0 mph 90 % 0.00 in 0 W/m2
01:05 58.8 °F 56.2 °F 29.86 in South 6.0 mph 11.0 mph 91 % 0.00 in 0 W/m2
01:11 58.8 °F 56.2 °F 29.86 in South 6.0 mph 10.0 mph 91 % 0.00 in 0 W/m2
01:16 58.8 °F 56.2 °F 29.85 in South 6.0 mph 10.0 mph 91 % 0.00 in 0 W/m2
01:21 58.6 °F 55.7 °F 29.85 in South 7.0 mph 12.0 mph 90 % 0.00 in 0 W/m2
01:26 58.6 °F 56.0 °F 29.86 in South 6.0 mph 12.0 mph 91 % 0.00 in 0 W/m2
01:30 58.6 °F 55.7 °F 29.85 in South 7.0 mph 12.0 mph 90 % 0.00 in 0 W/m2
01:36 58.8 °F 55.9 °F 29.85 in South 7.0 mph 12.0 mph 90 % 0.00 in 0 W/m2
01:41 58.8 °F 55.9 °F 29.85 in South 6.0 mph 11.0 mph 90 % 0.00 in 0 W/m2
01:46 58.6 °F 55.4 °F 29.85 in SSE 5.0 mph 9.0 mph 89 % 0.00 in 0 W/m2
01:51 58.6 °F 55.4 °F 29.85 in South 7.0 mph 15.0 mph 89 % 0.00 in 0 W/m2
01:56 58.6 °F 55.4 °F 29.85 in South 8.0 mph 18.0 mph 89 % 0.00 in 0 W/m2
02:01 58.6 °F 55.4 °F 29.85 in South 7.0 mph 18.0 mph 89 % 0.00 in 0 W/m2
02:06 58.6 °F 55.4 °F 29.85 in South 5.0 mph 9.0 mph 89 % 0.00 in 0 W/m2
02:11 58.5 °F 55.2 °F 29.85 in South 4.0 mph 12.0 mph 89 % 0.00 in 0 W/m2
02:16 58.5 °F 55.2 °F 29.84 in South 4.0 mph 12.0 mph 89 % 0.00 in 0 W/m2
02:21 58.5 °F 55.2 °F 29.84 in SSW 5.0 mph 10.0 mph 89 % 0.00 in 0 W/m2
02:26 58.5 °F 55.2 °F 29.84 in SSW 4.0 mph 10.0 mph 89 % 0.00 in 0 W/m2
02:31 58.5 °F 55.2 °F 29.85 in SSW 4.0 mph 8.0 mph 89 % 0.00 in 0 W/m2
02:36 58.5 °F 55.2 °F 29.85 in SSW 4.0 mph 7.0 mph 89 % 0.00 in 0 W/m2
02:41 58.5 °F 55.2 °F 29.84 in SSW 4.0 mph 9.0 mph 89 % 0.00 in 0 W/m2
02:46 58.5 °F 55.2 °F 29.84 in South 3.0 mph 9.0 mph 89 % 0.00 in 0 W/m2
02:51 58.3 °F 55.1 °F 29.84 in SSE 3.0 mph 6.0 mph 89 % 0.00 in 0 W/m2
02:56 58.3 °F 55.1 °F 29.84 in SSE 4.0 mph 8.0 mph 89 % 0.00 in 0 W/m2
03:01 57.9 °F 54.7 °F 29.84 in SSE 4.0 mph 8.0 mph 89 % 0.00 in 0 W/m2
03:06 57.7 °F 54.8 °F 29.84 in SSE 3.0 mph 7.0 mph 90 % 0.00 in 0 W/m2
03:11 57.7 °F 54.8 °F 29.84 in SSE 2.0 mph 7.0 mph 90 % 0.00 in 0 W/m2
03:16 57.7 °F 54.8 °F 29.84 in South 1.0 mph 8.0 mph 90 % 0.00 in 0 W/m2
03:21 57.6 °F 54.6 °F 29.84 in SSE 2.0 mph 8.0 mph 90 % 0.00 in 0 W/m2
03:26 57.4 °F 54.5 °F 29.84 in SE 2.0 mph 7.0 mph 90 % 0.00 in 0 W/m2
03:31 57.4 °F 54.5 °F 29.84 in SE 3.0 mph 8.0 mph 90 % 0.00 in 0 W/m2
03:36 57.2 °F 54.3 °F 29.83 in SSE 3.0 mph 8.0 mph 90 % 0.00 in 0 W/m2
03:41 57.0 °F 54.1 °F 29.83 in SSE 2.0 mph 6.0 mph 90 % 0.00 in 0 W/m2
03:46 56.8 °F 53.9 °F 29.83 in SSE 1.0 mph 5.0 mph 90 % 0.00 in 0 W/m2
03:51 56.8 °F 54.2 °F 29.83 in SSE 2.0 mph 8.0 mph 91 % 0.00 in 0 W/m2
03:56 56.8 °F 54.2 °F 29.83 in SSE 4.0 mph 8.0 mph 91 % 0.00 in 0 W/m2
04:01 56.8 °F 54.2 °F 29.83 in South 5.0 mph 13.0 mph 91 % 0.00 in 0 W/m2
04:06 56.8 °F 54.2 °F 29.82 in South 6.0 mph 13.0 mph 91 % 0.00 in 0 W/m2
04:11 57.0 °F 54.4 °F 29.82 in South 6.0 mph 11.0 mph 91 % 0.00 in 0 W/m2
04:16 57.0 °F 54.4 °F 29.82 in South 6.0 mph 11.0 mph 91 % 0.00 in 0 W/m2
04:21 57.0 °F 54.4 °F 29.82 in South 6.0 mph 12.0 mph 91 % 0.00 in 0 W/m2
04:26 57.0 °F 54.4 °F 29.82 in South 6.0 mph 12.0 mph 91 % 0.00 in 0 W/m2
04:27 57.0 °F 54.4 °F 29.82 in South 6.0 mph 12.0 mph 91 % 0.00 in 0 W/m2
04:31 57.0 °F 54.4 °F 29.82 in South 5.0 mph 11.0 mph 91 % 0.00 in 0 W/m2
04:36 56.8 °F 54.2 °F 29.81 in South 5.0 mph 12.0 mph 91 % 0.00 in 0 W/m2
04:41 56.8 °F 54.2 °F 29.82 in South 5.0 mph 12.0 mph 91 % 0.00 in 0 W/m2
04:46 56.8 °F 54.2 °F 29.82 in South 4.0 mph 8.0 mph 91 % 0.00 in 0 W/m2
04:51 56.8 °F 54.2 °F 29.82 in South 3.0 mph 8.0 mph 91 % 0.00 in 0 W/m2
04:56 56.7 °F 54.1 °F 29.82 in South 2.0 mph 7.0 mph 91 % 0.00 in 0 W/m2
05:01 56.7 °F 54.1 °F 29.82 in SSE 1.0 mph 6.0 mph 91 % 0.00 in 0 W/m2
05:06 56.5 °F 53.9 °F 29.82 in SSE 1.0 mph 5.0 mph 91 % 0.00 in 0 W/m2
05:11 56.3 °F 53.7 °F 29.82 in Calm   5.0 mph 91 % 0.00 in 0 W/m2
05:16 56.3 °F 54.0 °F 29.82 in SE 1.0 mph 5.0 mph 92 % 0.00 in 0 W/m2
05:21 56.3 °F 54.0 °F 29.83 in ESE 2.0 mph 5.0 mph 92 % 0.00 in 0 W/m2
05:26 56.3 °F 54.0 °F 29.83 in ESE 1.0 mph 4.0 mph 92 % 0.00 in 0 W/m2
05:31 56.3 °F 54.0 °F 29.83 in East 1.0 mph 5.0 mph 92 % 0.00 in 0 W/m2
05:36 56.1 °F 53.8 °F 29.83 in East 1.0 mph 5.0 mph 92 % 0.00 in 0 W/m2
05:41 56.3 °F 54.0 °F 29.83 in East 1.0 mph 5.0 mph 92 % 0.00 in 0 W/m2
05:46 56.1 °F 53.8 °F 29.83 in ESE 2.0 mph 5.0 mph 92 % 0.00 in 0 W/m2
05:51 56.3 °F 54.0 °F 29.83 in SSE 3.0 mph 8.0 mph 92 % 0.00 in 5 W/m2
05:56 56.5 °F 54.2 °F 29.83 in South 4.0 mph 8.0 mph 92 % 0.00 in 7 W/m2
06:01 56.5 °F 54.2 °F 29.83 in SSW 5.0 mph 10.0 mph 92 % 0.00 in 11 W/m2
06:06 56.5 °F 54.2 °F 29.83 in SSW 6.0 mph 10.0 mph 92 % 0.00 in 11 W/m2
06:11 56.7 °F 54.4 °F 29.83 in SW 6.0 mph 9.0 mph 92 % 0.00 in 12 W/m2
06:16 56.7 °F 54.4 °F 29.83 in SW 6.0 mph 10.0 mph 92 % 0.00 in 14 W/m2
06:21 56.8 °F 54.5 °F 29.83 in SW 6.0 mph 10.0 mph 92 % 0.00 in 16 W/m2
06:23 56.8 °F 54.5 °F 29.83 in SW 6.0 mph 10.0 mph 92 % 0.00 in 18 W/m2
06:28 57.0 °F 54.4 °F 29.83 in SW 7.0 mph 13.0 mph 91 % 0.00 in 19 W/m2
06:33 57.4 °F 54.8 °F 29.83 in SW 7.0 mph 13.0 mph 91 % 0.00 in 19 W/m2
06:38 57.4 °F 54.5 °F 29.83 in WSW 6.0 mph 10.0 mph 90 % 0.00 in 23 W/m2
06:43 57.6 °F 54.3 °F 29.84 in WSW 6.0 mph 10.0 mph 89 % 0.00 in 35 W/m2
06:48 57.6 °F 54.3 °F 29.84 in WSW 5.0 mph 10.0 mph 89 % 0.00 in 32 W/m2
06:53 57.7 °F 54.2 °F 29.84 in West 5.0 mph 11.0 mph 88 % 0.00 in 26 W/m2
06:58 57.7 °F 54.2 °F 29.84 in West 6.0 mph 11.0 mph 88 % 0.00 in 76 W/m2
07:03 57.9 °F 54.4 °F 29.84 in WSW 5.0 mph 11.0 mph 88 % 0.00 in 40 W/m2
07:08 58.3 °F 54.4 °F 29.84 in WSW 6.0 mph 13.0 mph 87 % 0.00 in 56 W/m2
07:13 58.5 °F 54.6 °F 29.84 in West 7.0 mph 13.0 mph 87 % 0.00 in 107 W/m2
07:18 58.6 °F 54.8 °F 29.85 in West 7.0 mph 11.0 mph 87 % 0.00 in 199 W/m2
07:23 59.2 °F 55.3 °F 29.85 in West 7.0 mph 16.0 mph 87 % 0.00 in 188 W/m2
07:28 59.4 °F 55.2 °F 29.85 in West 9.0 mph 16.0 mph 86 % 0.00 in 200 W/m2
07:33 59.5 °F 55.0 °F 29.85 in West 10.0 mph 15.0 mph 85 % 0.00 in 213 W/m2
07:38 59.9 °F 55.1 °F 29.85 in West 9.0 mph 18.0 mph 84 % 0.00 in 223 W/m2
07:43 60.1 °F 54.9 °F 29.85 in West 9.0 mph 18.0 mph 83 % 0.00 in 237 W/m2
07:48 60.3 °F 54.7 °F 29.85 in West 9.0 mph 18.0 mph 82 % 0.00 in 253 W/m2
07:53 60.4 °F 54.9 °F 29.85 in West 9.0 mph 18.0 mph 82 % 0.00 in 269 W/m2
07:58 60.6 °F 55.1 °F 29.86 in West 9.0 mph 15.0 mph 82 % 0.00 in 285 W/m2
08:03 61.0 °F 55.4 °F 29.86 in West 10.0 mph 18.0 mph 82 % 0.00 in 297 W/m2
08:08 61.2 °F 55.3 °F 29.86 in West 12.0 mph 21.0 mph 81 % 0.00 in 308 W/m2
08:13 61.3 °F 55.1 °F 29.86 in West 12.0 mph 21.0 mph 80 % 0.00 in 323 W/m2
08:18 61.3 °F 54.8 °F 29.86 in West 11.0 mph 19.0 mph 79 % 0.00 in 339 W/m2
08:23 61.7 °F 55.1 °F 29.86 in West 11.0 mph 19.0 mph 79 % 0.00 in 350 W/m2
08:28 61.9 °F 55.3 °F 29.86 in West 10.0 mph 19.0 mph 79 % 0.00 in 366 W/m2
08:33 61.9 °F 55.3 °F 29.85 in West 11.0 mph 21.0 mph 79 % 0.00 in 381 W/m2
08:38 62.1 °F 55.5 °F 29.85 in West 13.0 mph 22.0 mph 79 % 0.00 in 399 W/m2
08:43 62.1 °F 55.1 °F 29.86 in West 13.0 mph 22.0 mph 78 % 0.00 in 408 W/m2
08:48 62.2 °F 54.9 °F 29.86 in West 14.0 mph 26.0 mph 77 % 0.00 in 425 W/m2
08:53 62.4 °F 55.1 °F 29.86 in West 14.0 mph 26.0 mph 77 % 0.00 in 436 W/m2
08:58 62.4 °F 54.8 °F 29.86 in West 14.0 mph 24.0 mph 76 % 0.00 in 452 W/m2
09:09 63.0 °F 55.3 °F 29.86 in West 13.0 mph 22.0 mph 76 % 0.00 in 482 W/m2
09:14 63.0 °F 54.9 °F 29.86 in West 13.0 mph 22.0 mph 75 % 0.00 in 492 W/m2
09:19 63.1 °F 55.1 °F 29.86 in West 12.0 mph 22.0 mph 75 % 0.00 in 506 W/m2
09:24 63.1 °F 54.3 °F 29.86 in West 13.0 mph 23.0 mph 73 % 0.00 in 520 W/m2
09:29 63.3 °F 54.1 °F 29.87 in West 14.0 mph 25.0 mph 72 % 0.00 in 529 W/m2
09:34 63.7 °F 54.9 °F 29.87 in West 14.0 mph 25.0 mph 73 % 0.00 in 540 W/m2
09:39 63.9 °F 54.7 °F 29.87 in West 12.0 mph 21.0 mph 72 % 0.00 in 555 W/m2
09:44 64.2 °F 55.0 °F 29.87 in WSW 10.0 mph 18.0 mph 72 % 0.00 in 610 W/m2
09:49 64.2 °F 53.8 °F 29.88 in West 12.0 mph 20.0 mph 69 % 0.00 in 578 W/m2
09:54 64.4 °F 54.4 °F 29.88 in West 13.0 mph 20.0 mph 70 % 0.00 in 587 W/m2
09:59 64.8 °F 54.7 °F 29.88 in West 13.0 mph 20.0 mph 70 % 0.00 in 606 W/m2
10:04 64.6 °F 54.2 °F 29.88 in West 12.0 mph 21.0 mph 69 % 0.00 in 615 W/m2
10:09 64.8 °F 54.3 °F 29.89 in West 13.0 mph 24.0 mph 69 % 0.00 in 622 W/m2
10:14 64.8 °F 54.3 °F 29.89 in West 14.0 mph 24.0 mph 69 % 0.00 in 647 W/m2
10:19 64.9 °F 54.1 °F 29.89 in West 13.0 mph 22.0 mph 68 % 0.00 in 668 W/m2
10:24 65.1 °F 54.3 °F 29.89 in West 12.0 mph 19.0 mph 68 % 0.00 in 661 W/m2
10:29 65.7 °F 54.8 °F 29.89 in West 10.0 mph 18.0 mph 68 % 0.00 in 679 W/m2
10:34 66.0 °F 55.2 °F 29.89 in West 7.0 mph 13.0 mph 68 % 0.00 in 684 W/m2
10:39 66.6 °F 55.3 °F 29.89 in West 8.0 mph 13.0 mph 67 % 0.00 in 803 W/m2
10:44 66.6 °F 54.4 °F 29.89 in West 10.0 mph 19.0 mph 65 % 0.00 in 761 W/m2
10:49 66.6 °F 54.4 °F 29.89 in West 10.0 mph 19.0 mph 65 % 0.00 in 821 W/m2
10:54 66.7 °F 54.2 °F 29.89 in West 10.0 mph 19.0 mph 64 % 0.00 in 160 W/m2
10:59 66.2 °F 53.7 °F 29.89 in West 11.0 mph 21.0 mph 64 % 0.00 in 125 W/m2
11:04 66.0 °F 53.5 °F 29.89 in West 11.0 mph 21.0 mph 64 % 0.00 in 812 W/m2
11:09 66.4 °F 53.8 °F 29.89 in West 10.0 mph 18.0 mph 64 % 0.00 in 220 W/m2
11:12 66.4 °F 53.8 °F 29.89 in West 10.0 mph 18.0 mph 64 % 0.00 in 281 W/m2
11:17 66.4 °F 54.3 °F 29.89 in WSW 10.0 mph 18.0 mph 65 % 0.00 in 916 W/m2
11:22 66.7 °F 53.7 °F 29.90 in WSW 10.0 mph 18.0 mph 63 % 0.00 in 278 W/m2
11:27 66.7 °F 53.7 °F 29.90 in West 9.0 mph 16.0 mph 63 % 0.00 in 318 W/m2
11:32 66.7 °F 54.2 °F 29.90 in West 10.0 mph 19.0 mph 64 % 0.00 in 250 W/m2
11:37 66.6 °F 53.6 °F 29.90 in West 12.0 mph 22.0 mph 63 % 0.00 in 816 W/m2
11:42 66.9 °F 53.9 °F 29.90 in West 11.0 mph 22.0 mph 63 % 0.00 in 796 W/m2
11:47 67.3 °F 53.4 °F 29.90 in West 10.0 mph 19.0 mph 61 % 0.00 in 823 W/m2
11:52 67.6 °F 53.3 °F 29.90 in West 11.0 mph 20.0 mph 60 % 0.00 in 879 W/m2
11:57 67.8 °F 52.5 °F 29.90 in West 12.0 mph 20.0 mph 58 % 0.00 in 162 W/m2
12:02 67.8 °F 53.4 °F 29.90 in West 10.0 mph 20.0 mph 60 % 0.00 in 868 W/m2
12:07 68.4 °F 53.0 °F 29.90 in West 10.0 mph 24.0 mph 58 % 0.00 in 893 W/m2
12:12 68.4 °F 53.0 °F 29.90 in West 12.0 mph 24.0 mph 58 % 0.00 in 998 W/m2
12:17 68.7 °F 53.8 °F 29.90 in West 11.0 mph 20.0 mph 59 % 0.00 in 872 W/m2
12:22 69.1 °F 53.2 °F 29.90 in West 11.0 mph 19.0 mph 57 % 0.00 in 812 W/m2
12:27 68.7 °F 53.3 °F 29.90 in West 11.0 mph 19.0 mph 58 % 0.00 in 877 W/m2
12:32 68.7 °F 51.9 °F 29.90 in West 11.0 mph 19.0 mph 55 % 0.00 in 886 W/m2
12:37 69.3 °F 53.8 °F 29.90 in West 11.0 mph 23.0 mph 58 % 0.00 in 1004 W/m2
12:42 69.3 °F 53.4 °F 29.91 in West 12.0 mph 23.0 mph 57 % 0.00 in 854 W/m2
12:47 69.6 °F 53.7 °F 29.91 in West 12.0 mph 22.0 mph 57 % 0.00 in 893 W/m2
12:52 69.8 °F 53.4 °F 29.91 in West 12.0 mph 22.0 mph 56 % 0.00 in 861 W/m2
12:57 70.2 °F 53.2 °F 29.91 in West 11.0 mph 22.0 mph 55 % 0.00 in 838 W/m2
13:02 70.2 °F 51.7 °F 29.91 in West 11.0 mph 21.0 mph 52 % 0.00 in 838 W/m2
13:07 70.2 °F 52.2 °F 29.91 in West 11.0 mph 21.0 mph 53 % 0.00 in 854 W/m2
13:12 70.3 °F 53.4 °F 29.91 in West 9.0 mph 16.0 mph 55 % 0.00 in 870 W/m2
13:17 70.5 °F 53.1 °F 29.91 in West 9.0 mph 18.0 mph 54 % 0.00 in 914 W/m2
13:22 70.5 °F 53.1 °F 29.91 in West 11.0 mph 18.0 mph 54 % 0.00 in 884 W/m2
13:27 70.7 °F 52.2 °F 29.91 in West 11.0 mph 21.0 mph 52 % 0.00 in 967 W/m2
13:32 70.9 °F 52.4 °F 29.91 in West 12.0 mph 22.0 mph 52 % 0.00 in 1002 W/m2
13:37 71.2 °F 52.2 °F 29.91 in West 11.0 mph 22.0 mph 51 % 0.00 in 1111 W/m2
13:42 71.4 °F 52.3 °F 29.91 in WSW 9.0 mph 19.0 mph 51 % 0.00 in 979 W/m2
13:47 72.0 °F 51.8 °F 29.92 in West 11.0 mph 22.0 mph 49 % 0.00 in 192 W/m2
13:52 71.4 °F 50.7 °F 29.92 in WNW 12.0 mph 22.0 mph 48 % 0.00 in 921 W/m2
13:57 71.6 °F 52.0 °F 29.92 in West 11.0 mph 18.0 mph 50 % 0.00 in 932 W/m2
14:02 72.0 °F 52.3 °F 29.92 in West 10.0 mph 19.0 mph 50 % 0.00 in 926 W/m2
14:08 72.0 °F 52.3 °F 29.92 in West 12.0 mph 21.0 mph 50 % 0.00 in 889 W/m2
14:13 71.8 °F 52.7 °F 29.92 in West 12.0 mph 21.0 mph 51 % 0.00 in 851 W/m2
14:18 71.8 °F 52.1 °F 29.92 in West 13.0 mph 22.0 mph 50 % 0.00 in 860 W/m2
14:23 71.2 °F 51.6 °F 29.92 in West 13.0 mph 22.0 mph 50 % 0.00 in 847 W/m2
14:28 70.9 °F 52.9 °F 29.92 in West 12.0 mph 20.0 mph 53 % 0.00 in 788 W/m2
14:33 71.1 °F 52.0 °F 29.92 in West 12.0 mph 20.0 mph 51 % 0.00 in 791 W/m2
14:38 71.1 °F 51.5 °F 29.93 in West 12.0 mph 20.0 mph 50 % 0.00 in 802 W/m2
14:43 70.7 °F 51.1 °F 29.93 in West 13.0 mph 22.0 mph 50 % 0.00 in 809 W/m2
14:48 70.5 °F 51.0 °F 29.93 in West 12.0 mph 22.0 mph 50 % 0.00 in 824 W/m2
14:53 70.9 °F 51.3 °F 29.93 in West 11.0 mph 22.0 mph 50 % 0.00 in 858 W/m2
14:58 71.1 °F 52.5 °F 29.93 in WNW 11.0 mph 19.0 mph 52 % 0.00 in 842 W/m2
15:03 71.2 °F 52.2 °F 29.93 in WNW 11.0 mph 19.0 mph 51 % 0.00 in 807 W/m2
15:08 71.4 °F 51.8 °F 29.93 in WNW 12.0 mph 21.0 mph 50 % 0.00 in 823 W/m2
15:13 72.0 °F 52.3 °F 29.93 in WNW 11.0 mph 21.0 mph 50 % 0.00 in 884 W/m2
15:18 72.0 °F 52.3 °F 29.93 in WNW 11.0 mph 20.0 mph 50 % 0.00 in 795 W/m2
15:23 71.4 °F 52.3 °F 29.93 in WNW 12.0 mph 20.0 mph 51 % 0.00 in 308 W/m2
15:28 70.9 °F 51.8 °F 29.93 in WNW 11.0 mph 20.0 mph 51 % 0.00 in 250 W/m2
15:33 70.3 °F 52.4 °F 29.93 in WNW 10.0 mph 20.0 mph 53 % 0.00 in 441 W/m2
15:38 70.2 °F 52.2 °F 29.93 in West 8.0 mph 14.0 mph 53 % 0.00 in 264 W/m2
15:40 70.0 °F 51.5 °F 29.93 in West 8.0 mph 14.0 mph 52 % 0.00 in 264 W/m2
15:45 70.0 °F 51.5 °F 29.93 in West 10.0 mph 16.0 mph 52 % 0.00 in 287 W/m2
15:50 69.6 °F 52.2 °F 29.94 in West 11.0 mph 19.0 mph 54 % 0.00 in 213 W/m2
15:55 69.4 °F 52.1 °F 29.94 in West 11.0 mph 19.0 mph 54 % 0.00 in 221 W/m2
16:00 69.4 °F 53.1 °F 29.94 in West 9.0 mph 18.0 mph 56 % 0.00 in 789 W/m2
16:05 70.0 °F 52.6 °F 29.94 in West 10.0 mph 19.0 mph 54 % 0.00 in 320 W/m2
16:10 70.0 °F 52.1 °F 29.94 in West 10.0 mph 19.0 mph 53 % 0.00 in 698 W/m2
16:15 69.8 °F 51.9 °F 29.94 in WSW 10.0 mph 19.0 mph 53 % 0.00 in 148 W/m2
16:20 69.4 °F 52.1 °F 29.94 in West 11.0 mph 20.0 mph 54 % 0.00 in 719 W/m2
16:25 69.6 °F 52.7 °F 29.94 in West 10.0 mph 20.0 mph 55 % 0.00 in 737 W/m2
16:30 69.8 °F 52.4 °F 29.95 in West 9.0 mph 19.0 mph 54 % 0.00 in 652 W/m2
16:35 69.8 °F 51.9 °F 29.94 in West 9.0 mph 19.0 mph 53 % 0.00 in 132 W/m2
16:40 69.4 °F 51.6 °F 29.95 in West 10.0 mph 16.0 mph 53 % 0.00 in 169 W/m2
16:45 69.3 °F 51.9 °F 29.95 in West 10.0 mph 16.0 mph 54 % 0.00 in 186 W/m2
16:50 69.1 °F 51.7 °F 29.95 in West 10.0 mph 21.0 mph 54 % 0.00 in 156 W/m2
16:55 68.9 °F 52.6 °F 29.94 in West 10.0 mph 21.0 mph 56 % 0.00 in 548 W/m2
17:00 69.1 °F 51.7 °F 29.95 in West 11.0 mph 19.0 mph 54 % 0.00 in 508 W/m2
17:05 68.9 °F 51.6 °F 29.95 in West 12.0 mph 19.0 mph 54 % 0.00 in 79 W/m2
17:10 68.7 °F 51.9 °F 29.95 in West 11.0 mph 18.0 mph 55 % 0.00 in 499 W/m2
17:15 68.9 °F 52.1 °F 29.95 in West 11.0 mph 18.0 mph 55 % 0.00 in 461 W/m2
17:20 69.1 °F 51.7 °F 29.95 in West 11.0 mph 18.0 mph 54 % 0.00 in 88 W/m2
17:25 68.7 °F 52.4 °F 29.95 in West 10.0 mph 18.0 mph 56 % 0.00 in 459 W/m2
17:30 68.7 °F 52.4 °F 29.95 in West 10.0 mph 18.0 mph 56 % 0.00 in 417 W/m2
17:35 69.1 °F 52.7 °F 29.95 in West 9.0 mph 18.0 mph 56 % 0.00 in 404 W/m2
17:40 69.3 °F 52.9 °F 29.95 in West 8.0 mph 15.0 mph 56 % 0.00 in 388 W/m2
17:45 69.4 °F 52.6 °F 29.95 in West 9.0 mph 16.0 mph 55 % 0.00 in 376 W/m2
17:50 69.4 °F 53.1 °F 29.96 in West 9.0 mph 16.0 mph 56 % 0.00 in 364 W/m2
17:55 69.4 °F 53.1 °F 29.96 in WNW 9.0 mph 15.0 mph 56 % 0.00 in 346 W/m2
18:00 69.4 °F 53.1 °F 29.96 in WNW 10.0 mph 19.0 mph 56 % 0.00 in 353 W/m2
18:05 68.9 °F 52.6 °F 29.96 in West 11.0 mph 20.0 mph 56 % 0.00 in 322 W/m2
18:10 68.7 °F 52.9 °F 29.96 in West 10.0 mph 20.0 mph 57 % 0.00 in 294 W/m2
18:16 68.5 °F 52.7 °F 29.96 in West 9.0 mph 20.0 mph 57 % 0.00 in 281 W/m2
18:21 68.5 °F 53.2 °F 29.96 in West 8.0 mph 18.0 mph 58 % 0.00 in 267 W/m2
18:26 68.4 °F 52.5 °F 29.97 in West 9.0 mph 16.0 mph 57 % 0.00 in 253 W/m2
18:31 68.0 °F 52.2 °F 29.97 in West 10.0 mph 16.0 mph 57 % 0.00 in 236 W/m2
18:36 67.8 °F 51.5 °F 29.97 in West 10.0 mph 18.0 mph 56 % 0.00 in 221 W/m2
18:41 67.8 °F 52.0 °F 29.97 in West 9.0 mph 18.0 mph 57 % 0.00 in 209 W/m2
18:46 67.6 °F 51.9 °F 29.97 in West 9.0 mph 14.0 mph 57 % 0.00 in 195 W/m2
18:51 67.6 °F 51.9 °F 29.97 in West 9.0 mph 14.0 mph 57 % 0.00 in 181 W/m2
18:56 67.5 °F 51.7 °F 29.97 in West 8.0 mph 14.0 mph 57 % 0.00 in 171 W/m2
19:01 67.3 °F 51.5 °F 29.98 in West 7.0 mph 14.0 mph 57 % 0.00 in 156 W/m2
19:06 67.3 °F 51.5 °F 29.98 in West 7.0 mph 14.0 mph 57 % 0.00 in 146 W/m2
19:11 66.9 °F 50.7 °F 29.98 in West 7.0 mph 14.0 mph 56 % 0.00 in 134 W/m2
19:16 66.7 °F 50.1 °F 29.98 in West 7.0 mph 11.0 mph 55 % 0.00 in 123 W/m2
19:21 66.7 °F 51.0 °F 29.98 in West 7.0 mph 11.0 mph 57 % 0.00 in 109 W/m2
19:26 66.6 °F 49.9 °F 29.98 in West 7.0 mph 12.0 mph 55 % 0.00 in 100 W/m2
19:31 66.6 °F 50.4 °F 29.99 in West 8.0 mph 12.0 mph 56 % 0.00 in 88 W/m2
19:36 66.4 °F 50.2 °F 29.99 in West 7.0 mph 12.0 mph 56 % 0.00 in 76 W/m2
19:41 66.0 °F 49.9 °F 29.99 in West 6.0 mph 12.0 mph 56 % 0.00 in 63 W/m2
19:46 65.7 °F 50.0 °F 29.99 in West 6.0 mph 14.0 mph 57 % 0.00 in 33 W/m2
19:51 65.1 °F 50.0 °F 29.99 in WNW 8.0 mph 14.0 mph 58 % 0.00 in 33 W/m2
19:56 64.8 °F 50.1 °F 29.99 in WNW 7.0 mph 14.0 mph 59 % 0.00 in 19 W/m2
20:01 64.6 °F 49.9 °F 30.00 in West 6.0 mph 9.0 mph 59 % 0.00 in 19 W/m2
20:06 64.2 °F 50.0 °F 30.00 in West 5.0 mph 8.0 mph 60 % 0.00 in 16 W/m2
20:11 64.0 °F 50.3 °F 30.00 in West 4.0 mph 8.0 mph 61 % 0.00 in 14 W/m2
20:16 63.7 °F 50.4 °F 30.00 in West 3.0 mph 5.0 mph 62 % 0.00 in 12 W/m2
20:21 63.3 °F 50.5 °F 30.00 in West 2.0 mph 5.0 mph 63 % 0.00 in 11 W/m2
20:26 63.0 °F 50.2 °F 30.01 in West 1.0 mph 5.0 mph 63 % 0.00 in 7 W/m2
20:31 62.8 °F 50.8 °F 30.01 in West 1.0 mph 4.0 mph 65 % 0.00 in 5 W/m2
20:36 62.2 °F 50.3 °F 30.01 in Calm   2.0 mph 65 % 0.00 in 0 W/m2
20:41 61.9 °F 50.4 °F 30.01 in Calm   1.0 mph 66 % 0.00 in 0 W/m2
20:46 61.5 °F 50.1 °F 30.01 in Calm     66 % 0.00 in 0 W/m2
20:51 61.2 °F 50.1 °F 30.01 in Calm     67 % 0.00 in 0 W/m2
20:56 61.0 °F 50.3 °F 30.01 in Calm   1.0 mph 68 % 0.00 in 0 W/m2
21:01 60.4 °F 50.2 °F 30.01 in Calm   1.0 mph 69 % 0.00 in 0 W/m2
21:06 60.1 °F 49.9 °F 30.02 in Calm   2.0 mph 69 % 0.00 in 0 W/m2
21:11 59.7 °F 49.9 °F 30.02 in West 1.0 mph 5.0 mph 70 % 0.00 in 0 W/m2
21:16 59.5 °F 50.1 °F 30.02 in West 2.0 mph 5.0 mph 71 % 0.00 in 0 W/m2
21:21 59.2 °F 50.2 °F 30.02 in West 3.0 mph 5.0 mph 72 % 0.00 in 0 W/m2
21:26 59.0 °F 50.0 °F 30.02 in West 3.0 mph 5.0 mph 72 % 0.00 in 0 W/m2
21:31 58.8 °F 50.2 °F 30.02 in West 3.0 mph 6.0 mph 73 % 0.00 in 0 W/m2
21:36 58.6 °F 50.0 °F 30.02 in West 4.0 mph 6.0 mph 73 % 0.00 in 0 W/m2
21:42 58.5 °F 50.2 °F 30.02 in WNW 4.0 mph 6.0 mph 74 % 0.00 in 0 W/m2
21:47 58.3 °F 50.4 °F 30.03 in WNW 2.0 mph 5.0 mph 75 % 0.00 in 0 W/m2
21:52 57.9 °F 50.0 °F 30.03 in WNW 1.0 mph 4.0 mph 75 % 0.00 in 0 W/m2
21:57 57.7 °F 50.6 °F 30.03 in Calm   2.0 mph 77 % 0.00 in 0 W/m2
22:02 57.2 °F 50.4 °F 30.03 in Calm   1.0 mph 78 % 0.00 in 0 W/m2
22:07 56.8 °F 50.4 °F 30.04 in Calm     79 % 0.00 in 0 W/m2
22:12 56.3 °F 49.9 °F 30.04 in Calm     79 % 0.00 in 0 W/m2
22:17 55.9 °F 49.9 °F 30.04 in Calm   1.0 mph 80 % 0.00 in 0 W/m2
22:22 55.8 °F 50.0 °F 30.04 in Calm   1.0 mph 81 % 0.00 in 0 W/m2
22:27 55.4 °F 49.7 °F 30.04 in Calm     81 % 0.00 in 0 W/m2
22:32 55.0 °F 49.3 °F 30.05 in Calm     81 % 0.00 in 0 W/m2
22:37 54.9 °F 49.5 °F 30.05 in Calm   1.0 mph 82 % 0.00 in 0 W/m2
22:42 54.7 °F 49.3 °F 30.05 in Calm   1.0 mph 82 % 0.00 in 0 W/m2
22:47 54.3 °F 49.3 °F 30.05 in Calm   1.0 mph 83 % 0.00 in 0 W/m2
22:52 54.1 °F 49.1 °F 30.05 in Calm   1.0 mph 83 % 0.00 in 0 W/m2
22:57 54.0 °F 48.9 °F 30.05 in Calm   1.0 mph 83 % 0.00 in 0 W/m2
23:02 54.0 °F 48.9 °F 30.05 in Calm     83 % 0.00 in 0 W/m2
23:07 53.8 °F 48.7 °F 30.05 in Calm     83 % 0.00 in 0 W/m2
23:12 53.6 °F 48.9 °F 30.05 in Calm     84 % 0.00 in 0 W/m2
23:17 53.4 °F 48.7 °F 30.05 in Calm     84 % 0.00 in 0 W/m2
23:22 53.2 °F 48.5 °F 30.05 in Calm     84 % 0.00 in 0 W/m2
23:27 53.1 °F 48.7 °F 30.05 in WNW 1.0 mph 4.0 mph 85 % 0.00 in 0 W/m2
23:32 53.1 °F 48.7 °F 30.05 in WNW 1.0 mph 4.0 mph 85 % 0.00 in 0 W/m2
23:37 52.7 °F 48.3 °F 30.05 in Calm   4.0 mph 85 % 0.00 in 0 W/m2
23:42 52.3 °F 48.3 °F 30.05 in Calm   2.0 mph 86 % 0.00 in 0 W/m2
23:45 52.3 °F 48.3 °F 30.05 in Calm   2.0 mph 86 % 0.00 in 0 W/m2
23:50 52.2 °F 48.1 °F 30.05 in WNW 1.0 mph 2.0 mph 86 % 0.00 in 0 W/m2
23:55 52.2 °F 48.4 °F 30.05 in WNW 1.0 mph 5.0 mph 87 % 0.00 in 0 W/m2
Delerius-Weather
Compliments of Weather Underground - 2.25 mb

Data updates at regular intervals.